createdAt,value
2022-09-19T00:00:03.033Z,971.88
2022-09-19T00:01:03.013Z,971.75
2022-09-19T00:02:03.334Z,971.70
2022-09-19T00:03:03.280Z,971.70
2022-09-19T00:04:03.217Z,971.88
2022-09-19T00:05:03.133Z,971.72
2022-09-19T00:06:03.041Z,971.72
2022-09-19T00:07:03.098Z,971.75
2022-09-19T00:08:03.149Z,971.64
2022-09-19T00:09:03.127Z,971.81
2022-09-19T00:10:03.594Z,971.73
2022-09-19T00:11:03.439Z,971.61
2022-09-19T00:12:03.429Z,971.75
2022-09-19T00:13:03.610Z,971.67
2022-09-19T00:14:03.652Z,971.64
2022-09-19T00:15:03.681Z,971.75
2022-09-19T00:16:03.880Z,971.73
2022-09-19T00:17:03.755Z,971.67
2022-09-19T00:18:03.840Z,971.86
2022-09-19T00:19:04.018Z,971.61
2022-09-19T00:20:03.837Z,971.75
2022-09-19T00:21:03.908Z,971.89
2022-09-19T00:22:03.852Z,971.75
2022-09-19T00:23:02.934Z,971.75
2022-09-19T00:24:02.942Z,971.73
2022-09-19T00:25:03.855Z,971.75
2022-09-19T00:26:03.013Z,971.78
2022-09-19T00:27:02.899Z,971.81
2022-09-19T00:28:02.972Z,971.67
2022-09-19T00:29:03.124Z,971.75
2022-09-19T00:30:03.086Z,971.72
2022-09-19T00:31:03.185Z,971.61
2022-09-19T00:32:03.152Z,971.91
2022-09-19T00:33:03.143Z,971.86
2022-09-19T00:34:03.648Z,971.58
2022-09-19T00:35:03.287Z,971.78
2022-09-19T00:36:03.383Z,971.75
2022-09-19T00:37:03.424Z,971.58
2022-09-19T00:38:03.537Z,971.64
2022-09-19T00:39:03.703Z,971.64
2022-09-19T00:40:03.699Z,971.61
2022-09-19T00:41:03.629Z,971.70
2022-09-19T00:42:03.700Z,971.72
2022-09-19T00:43:03.706Z,971.70
2022-09-19T00:44:03.842Z,971.67
2022-09-19T00:45:03.866Z,971.70
2022-09-19T00:46:03.994Z,971.81
2022-09-19T00:47:03.900Z,971.83
2022-09-19T00:48:03.878Z,971.69
2022-09-19T00:49:03.997Z,971.69
2022-09-19T00:50:03.925Z,971.67
2022-09-19T00:51:03.929Z,971.81
2022-09-19T00:52:02.882Z,971.72
2022-09-19T00:53:02.990Z,971.86
2022-09-19T00:54:03.677Z,971.75
2022-09-19T00:55:03.551Z,971.72
2022-09-19T00:56:03.623Z,971.70
2022-09-19T00:57:03.601Z,971.72
2022-09-19T00:58:03.670Z,971.67
2022-09-19T00:59:03.739Z,971.61
2022-09-19T01:00:03.683Z,971.67
2022-09-19T01:01:03.918Z,971.67
2022-09-19T01:02:03.807Z,971.81
2022-09-19T01:03:03.937Z,971.75
2022-09-19T01:04:03.992Z,971.70
2022-09-19T01:05:03.307Z,971.88
2022-09-19T01:06:03.351Z,971.83
2022-09-19T01:07:03.257Z,971.83
2022-09-19T01:08:03.289Z,971.70
2022-09-19T01:09:03.247Z,971.72
2022-09-19T01:10:03.412Z,971.81
2022-09-19T01:11:03.365Z,971.83
2022-09-19T01:12:03.368Z,971.88
2022-09-19T01:13:03.360Z,971.73
2022-09-19T01:14:03.329Z,971.78
2022-09-19T01:15:03.330Z,971.70
2022-09-19T01:16:03.361Z,971.83
2022-09-19T01:17:03.322Z,971.75
2022-09-19T01:18:03.388Z,971.86
2022-09-19T01:19:03.925Z,971.91
2022-09-19T01:20:03.414Z,971.75
2022-09-19T01:21:03.574Z,971.86
2022-09-19T01:22:03.489Z,971.81
2022-09-19T01:23:03.642Z,971.86
2022-09-19T01:24:03.654Z,971.94
2022-09-19T01:25:03.683Z,971.83
2022-09-19T01:26:03.663Z,971.94
2022-09-19T01:27:03.824Z,971.88
2022-09-19T01:28:03.813Z,971.91
2022-09-19T01:29:03.847Z,971.83
2022-09-19T01:30:03.826Z,971.88
2022-09-19T01:31:03.691Z,971.86
2022-09-19T01:32:03.102Z,971.88
2022-09-19T01:33:03.134Z,972.03
2022-09-19T01:34:03.427Z,971.86
2022-09-19T01:35:03.210Z,971.75
2022-09-19T01:36:03.353Z,971.91
2022-09-19T01:37:03.331Z,971.91
2022-09-19T01:38:03.327Z,971.97
2022-09-19T01:39:03.275Z,972.03
2022-09-19T01:40:03.536Z,971.97
2022-09-19T01:41:03.616Z,971.97
2022-09-19T01:42:03.604Z,971.94
2022-09-19T01:43:03.729Z,972.03
2022-09-19T01:44:03.758Z,971.89
2022-09-19T01:45:03.792Z,971.97
2022-09-19T01:46:03.940Z,972.08
2022-09-19T01:47:03.788Z,972.17
2022-09-19T01:48:03.848Z,972.06
2022-09-19T01:49:03.001Z,971.94
2022-09-19T01:50:02.993Z,972.17
2022-09-19T01:51:03.046Z,972.03
2022-09-19T01:52:03.071Z,972.06
2022-09-19T01:53:03.158Z,972.11
2022-09-19T01:54:03.165Z,972.14
2022-09-19T01:55:03.263Z,972.20
2022-09-19T01:56:03.310Z,972.06
2022-09-19T01:57:03.302Z,972.06
2022-09-19T01:58:03.168Z,972.17
2022-09-19T01:59:03.171Z,972.09
2022-09-19T02:00:03.698Z,972.09
2022-09-19T02:01:03.069Z,972.09
2022-09-19T02:02:03.102Z,971.94
2022-09-19T02:03:03.005Z,972.11
2022-09-19T02:04:03.330Z,972.00
2022-09-19T02:05:03.304Z,972.12
2022-09-19T02:06:03.199Z,972.14
2022-09-19T02:07:03.229Z,972.00
2022-09-19T02:08:03.147Z,972.14
2022-09-19T02:09:03.522Z,972.09
2022-09-19T02:10:03.482Z,972.14
2022-09-19T02:11:03.526Z,972.14
2022-09-19T02:12:03.439Z,972.26
2022-09-19T02:13:03.788Z,972.06
2022-09-19T02:14:03.888Z,972.31
2022-09-19T02:15:02.995Z,972.31
2022-09-19T02:16:03.278Z,972.26
2022-09-19T02:17:03.280Z,972.17
2022-09-19T02:18:03.284Z,972.06
2022-09-19T02:19:03.386Z,972.28
2022-09-19T02:20:03.238Z,972.25
2022-09-19T02:21:03.247Z,972.14
2022-09-19T02:22:03.232Z,972.23
2022-09-19T02:23:03.263Z,972.23
2022-09-19T02:24:03.253Z,972.37
2022-09-19T02:25:03.402Z,972.48
2022-09-19T02:26:03.471Z,972.53
2022-09-19T02:27:03.599Z,972.37
2022-09-19T02:28:03.528Z,972.40
2022-09-19T02:29:03.615Z,972.45
2022-09-19T02:30:03.620Z,972.45
2022-09-19T02:31:03.674Z,972.45
2022-09-19T02:32:03.761Z,972.31
2022-09-19T02:33:03.765Z,972.45
2022-09-19T02:34:03.990Z,972.45
2022-09-19T02:35:02.923Z,972.48
2022-09-19T02:36:03.460Z,972.53
2022-09-19T02:37:03.436Z,972.48
2022-09-19T02:38:03.432Z,972.48
2022-09-19T02:39:03.395Z,972.56
2022-09-19T02:40:03.445Z,972.67
2022-09-19T02:41:03.218Z,972.53
2022-09-19T02:42:03.175Z,972.45
2022-09-19T02:43:03.252Z,972.61
2022-09-19T02:44:03.276Z,972.39
2022-09-19T02:45:03.744Z,972.53
2022-09-19T02:46:04.072Z,972.75
2022-09-19T02:47:03.913Z,972.53
2022-09-19T02:48:03.790Z,972.64
2022-09-19T02:49:03.895Z,972.70
2022-09-19T02:50:03.982Z,972.70
2022-09-19T02:51:03.836Z,972.64
2022-09-19T02:52:03.806Z,972.84
2022-09-19T02:53:03.858Z,972.84
2022-09-19T02:54:02.996Z,972.75
2022-09-19T02:55:02.917Z,972.69
2022-09-19T02:56:03.432Z,972.81
2022-09-19T02:57:03.576Z,972.72
2022-09-19T02:58:03.578Z,972.86
2022-09-19T02:59:03.637Z,972.78
2022-09-19T03:00:03.231Z,972.64
2022-09-19T03:01:03.211Z,972.69
2022-09-19T03:02:03.402Z,972.80
2022-09-19T03:03:03.255Z,972.81
2022-09-19T03:04:03.362Z,972.89
2022-09-19T03:05:03.420Z,972.83
2022-09-19T03:06:03.509Z,972.80
2022-09-19T03:07:03.436Z,972.78
2022-09-19T03:08:03.438Z,972.86
2022-09-19T03:09:03.454Z,972.83
2022-09-19T03:10:03.467Z,972.77
2022-09-19T03:11:03.535Z,972.80
2022-09-19T03:12:03.473Z,972.80
2022-09-19T03:13:03.678Z,972.83
2022-09-19T03:14:03.645Z,972.74
2022-09-19T03:15:03.619Z,972.74
2022-09-19T03:16:03.805Z,972.77
2022-09-19T03:17:03.680Z,973.03
2022-09-19T03:18:03.735Z,972.88
2022-09-19T03:19:03.831Z,972.97
2022-09-19T03:20:03.702Z,972.71
2022-09-19T03:21:03.843Z,972.83
2022-09-19T03:22:03.751Z,972.88
2022-09-19T03:23:03.853Z,972.83
2022-09-19T03:24:02.916Z,972.74
2022-09-19T03:25:02.902Z,972.80
2022-09-19T03:26:02.939Z,972.91
2022-09-19T03:27:02.988Z,972.80
2022-09-19T03:28:03.129Z,972.83
2022-09-19T03:29:03.169Z,972.94
2022-09-19T03:30:03.260Z,972.85
2022-09-19T03:31:03.196Z,972.83
2022-09-19T03:32:03.295Z,972.88
2022-09-19T03:33:03.239Z,972.88
2022-09-19T03:34:03.532Z,972.88
2022-09-19T03:35:03.342Z,972.94
2022-09-19T03:36:03.420Z,973.08
2022-09-19T03:37:03.486Z,973.02
2022-09-19T03:38:03.489Z,972.91
2022-09-19T03:39:03.506Z,973.05
2022-09-19T03:40:03.537Z,972.94
2022-09-19T03:41:03.535Z,973.02
2022-09-19T03:42:03.661Z,972.97
2022-09-19T03:43:03.623Z,973.00
2022-09-19T03:44:03.611Z,972.94
2022-09-19T03:45:03.656Z,972.97
2022-09-19T03:46:03.823Z,972.91
2022-09-19T03:47:03.715Z,973.11
2022-09-19T03:48:03.677Z,973.16
2022-09-19T03:49:04.073Z,973.19
2022-09-19T03:50:03.744Z,973.14
2022-09-19T03:51:03.879Z,973.22
2022-09-19T03:52:03.919Z,973.25
2022-09-19T03:53:03.814Z,973.11
2022-09-19T03:54:02.948Z,973.19
2022-09-19T03:55:02.979Z,973.11
2022-09-19T03:56:02.957Z,973.11
2022-09-19T03:57:03.043Z,973.16
2022-09-19T03:58:03.083Z,973.16
2022-09-19T03:59:03.194Z,973.22
2022-09-19T04:00:03.065Z,973.25
2022-09-19T04:01:03.357Z,973.39
2022-09-19T04:02:03.335Z,973.16
2022-09-19T04:03:03.242Z,973.16
2022-09-19T04:04:03.367Z,973.27
2022-09-19T04:05:03.339Z,973.33
2022-09-19T04:06:03.305Z,973.27
2022-09-19T04:07:03.281Z,973.36
2022-09-19T04:08:03.319Z,973.50
2022-09-19T04:09:03.411Z,973.22
2022-09-19T04:10:03.334Z,973.33
2022-09-19T04:11:03.392Z,973.25
2022-09-19T04:12:06.653Z,973.44
2022-09-19T04:13:03.556Z,973.30
2022-09-19T04:14:03.574Z,973.36
2022-09-19T04:15:03.611Z,973.25
2022-09-19T04:16:03.554Z,973.39
2022-09-19T04:17:23.273Z,973.42
2022-09-19T04:18:03.689Z,973.42
2022-09-19T04:19:03.782Z,973.53
2022-09-19T04:20:03.638Z,973.27
2022-09-19T04:21:03.693Z,973.60
2022-09-19T04:22:03.630Z,973.53
2022-09-19T04:23:03.700Z,973.72
2022-09-19T04:24:03.777Z,973.60
2022-09-19T04:25:04.045Z,973.57
2022-09-19T04:26:03.081Z,973.63
2022-09-19T04:27:03.084Z,973.55
2022-09-19T04:28:03.195Z,973.69
2022-09-19T04:29:03.188Z,973.57
2022-09-19T04:30:03.217Z,973.60
2022-09-19T04:31:03.272Z,973.57
2022-09-19T04:32:03.368Z,973.55
2022-09-19T04:33:03.429Z,973.57
2022-09-19T04:34:03.526Z,973.69
2022-09-19T04:35:03.473Z,973.74
2022-09-19T04:36:03.545Z,973.86
2022-09-19T04:37:03.512Z,973.83
2022-09-19T04:38:03.723Z,973.71
2022-09-19T04:39:03.708Z,973.74
2022-09-19T04:40:03.889Z,973.71
2022-09-19T04:41:03.800Z,973.80
2022-09-19T04:42:03.891Z,973.74
2022-09-19T04:43:02.959Z,973.80
2022-09-19T04:44:03.118Z,973.83
2022-09-19T04:45:03.286Z,973.83
2022-09-19T04:46:04.154Z,973.77
2022-09-19T04:47:03.419Z,973.88
2022-09-19T04:48:03.490Z,973.68
2022-09-19T04:49:03.648Z,973.85
2022-09-19T04:50:05.475Z,973.85
2022-09-19T04:51:03.689Z,973.85
2022-09-19T04:52:03.301Z,973.88
2022-09-19T04:53:03.428Z,973.85
2022-09-19T04:54:03.501Z,973.85
2022-09-19T04:55:03.459Z,973.91
2022-09-19T04:56:03.545Z,973.91
2022-09-19T04:57:03.519Z,973.91
2022-09-19T04:58:03.079Z,974.02
2022-09-19T04:59:03.161Z,974.02
2022-09-19T05:00:03.465Z,973.99
2022-09-19T05:01:03.597Z,974.08
2022-09-19T05:02:03.248Z,974.08
2022-09-19T05:03:03.115Z,974.14
2022-09-19T05:04:03.194Z,974.11
2022-09-19T05:05:03.222Z,974.05
2022-09-19T05:06:03.286Z,973.99
2022-09-19T05:07:03.260Z,974.13
2022-09-19T05:08:03.362Z,974.13
2022-09-19T05:09:03.408Z,974.05
2022-09-19T05:10:03.463Z,974.30
2022-09-19T05:11:03.559Z,974.24
2022-09-19T05:12:03.710Z,974.22
2022-09-19T05:13:03.767Z,974.13
2022-09-19T05:14:03.976Z,974.21
2022-09-19T05:15:03.817Z,974.36
2022-09-19T05:16:04.009Z,974.24
2022-09-19T05:17:03.923Z,974.21
2022-09-19T05:18:02.917Z,974.41
2022-09-19T05:19:03.888Z,974.36
2022-09-19T05:20:03.905Z,974.41
2022-09-19T05:21:02.961Z,974.50
2022-09-19T05:22:02.995Z,974.36
2022-09-19T05:23:02.911Z,974.41
2022-09-19T05:24:02.985Z,974.30
2022-09-19T05:25:03.029Z,974.41
2022-09-19T05:26:03.030Z,974.44
2022-09-19T05:27:03.028Z,974.55
2022-09-19T05:28:02.992Z,974.67
2022-09-19T05:29:03.152Z,974.55
2022-09-19T05:30:03.025Z,974.55
2022-09-19T05:31:02.993Z,974.61
2022-09-19T05:32:03.126Z,974.61
2022-09-19T05:33:04.777Z,974.61
2022-09-19T05:34:03.198Z,974.66
2022-09-19T05:35:03.247Z,974.55
2022-09-19T05:36:03.191Z,974.66
2022-09-19T05:37:03.374Z,974.64
2022-09-19T05:38:03.242Z,974.64
2022-09-19T05:39:03.338Z,974.58
2022-09-19T05:40:03.490Z,974.81
2022-09-19T05:41:03.569Z,974.58
2022-09-19T05:42:03.576Z,974.66
2022-09-19T05:43:03.736Z,974.64
2022-09-19T05:44:04.160Z,974.78
2022-09-19T05:45:03.759Z,974.83
2022-09-19T05:46:03.715Z,974.83
2022-09-19T05:47:03.947Z,974.66
2022-09-19T05:48:03.807Z,974.83
2022-09-19T05:49:03.959Z,974.83
2022-09-19T05:50:02.916Z,974.83
2022-09-19T05:51:03.073Z,974.80
2022-09-19T05:52:03.151Z,974.89
2022-09-19T05:53:03.224Z,974.83
2022-09-19T05:54:03.172Z,974.83
2022-09-19T05:55:03.348Z,974.89
2022-09-19T05:56:04.887Z,974.94
2022-09-19T05:57:03.138Z,974.91
2022-09-19T05:58:03.187Z,974.83
2022-09-19T05:59:03.366Z,974.83
2022-09-19T06:00:03.340Z,974.96
2022-09-19T06:01:03.471Z,974.99
2022-09-19T06:02:03.396Z,974.96
2022-09-19T06:03:03.274Z,974.94
2022-09-19T06:04:03.398Z,974.91
2022-09-19T06:05:03.479Z,975.02
2022-09-19T06:06:03.642Z,974.99
2022-09-19T06:07:03.600Z,974.96
2022-09-19T06:08:03.543Z,974.91
2022-09-19T06:09:03.628Z,975.02
2022-09-19T06:10:03.762Z,975.01
2022-09-19T06:11:03.885Z,974.96
2022-09-19T06:12:03.660Z,975.13
2022-09-19T06:13:03.790Z,975.10
2022-09-19T06:14:03.947Z,975.04
2022-09-19T06:15:03.863Z,975.04
2022-09-19T06:16:04.493Z,975.19
2022-09-19T06:17:03.452Z,975.13
2022-09-19T06:18:03.417Z,975.13
2022-09-19T06:19:03.451Z,975.16
2022-09-19T06:20:03.377Z,975.24
2022-09-19T06:21:03.358Z,975.27
2022-09-19T06:22:04.037Z,975.30
2022-09-19T06:23:03.513Z,975.30
2022-09-19T06:24:03.508Z,975.35
2022-09-19T06:25:03.481Z,975.38
2022-09-19T06:26:03.626Z,975.41
2022-09-19T06:27:03.598Z,975.35
2022-09-19T06:28:03.661Z,975.33
2022-09-19T06:29:03.739Z,975.38
2022-09-19T06:30:03.756Z,975.35
2022-09-19T06:31:03.862Z,975.33
2022-09-19T06:32:03.939Z,975.38
2022-09-19T06:33:02.931Z,975.40
2022-09-19T06:34:02.994Z,975.24
2022-09-19T06:35:03.012Z,975.49
2022-09-19T06:36:03.164Z,975.57
2022-09-19T06:37:09.109Z,975.37
2022-09-19T06:38:03.128Z,975.52
2022-09-19T06:39:03.200Z,975.46
2022-09-19T06:40:03.286Z,975.49
2022-09-19T06:41:03.233Z,975.43
2022-09-19T06:42:03.143Z,975.43
2022-09-19T06:43:03.162Z,975.60
2022-09-19T06:44:03.401Z,975.43
2022-09-19T06:45:03.185Z,975.46
2022-09-19T06:46:03.384Z,975.66
2022-09-19T06:47:03.263Z,975.66
2022-09-19T06:48:03.270Z,975.63
2022-09-19T06:49:03.218Z,975.54
2022-09-19T06:50:03.272Z,975.46
2022-09-19T06:51:03.286Z,975.48
2022-09-19T06:52:03.285Z,975.54
2022-09-19T06:53:02.926Z,975.54
2022-09-19T06:54:02.894Z,975.51
2022-09-19T06:55:02.909Z,975.57
2022-09-19T06:56:02.888Z,975.60
2022-09-19T06:57:03.060Z,975.57
2022-09-19T06:58:03.114Z,975.65
2022-09-19T06:59:03.903Z,975.60
2022-09-19T07:00:03.802Z,975.71
2022-09-19T07:01:03.964Z,975.74
2022-09-19T07:02:03.922Z,975.57
2022-09-19T07:03:03.855Z,975.62
2022-09-19T07:04:03.813Z,975.71
2022-09-19T07:05:03.676Z,975.62
2022-09-19T07:06:03.021Z,975.71
2022-09-19T07:07:02.945Z,975.74
2022-09-19T07:08:03.061Z,975.59
2022-09-19T07:09:03.060Z,975.65
2022-09-19T07:10:03.092Z,975.85
2022-09-19T07:11:03.043Z,975.85
2022-09-19T07:12:03.053Z,975.76
2022-09-19T07:13:03.147Z,975.93
2022-09-19T07:14:03.332Z,975.87
2022-09-19T07:15:03.266Z,975.90
2022-09-19T07:16:03.216Z,975.93
2022-09-19T07:17:03.337Z,975.87
2022-09-19T07:18:03.443Z,975.87
2022-09-19T07:19:03.551Z,975.98
2022-09-19T07:20:03.519Z,975.90
2022-09-19T07:21:03.510Z,976.01
2022-09-19T07:22:03.582Z,975.95
2022-09-19T07:23:03.659Z,976.07
2022-09-19T07:24:09.815Z,976.06
2022-09-19T07:25:03.704Z,976.09
2022-09-19T07:26:03.832Z,975.98
2022-09-19T07:27:03.803Z,976.06
2022-09-19T07:28:05.068Z,976.01
2022-09-19T07:29:03.871Z,976.15
2022-09-19T07:30:02.991Z,976.12
2022-09-19T07:31:02.974Z,976.12
2022-09-19T07:32:03.295Z,976.09
2022-09-19T07:33:03.065Z,976.06
2022-09-19T07:34:05.545Z,976.17
2022-09-19T07:35:03.109Z,976.23
2022-09-19T07:36:09.807Z,976.08
2022-09-19T07:37:03.098Z,976.05
2022-09-19T07:38:03.904Z,976.14
2022-09-19T07:39:03.895Z,976.08
2022-09-19T07:40:12.756Z,976.16
2022-09-19T07:41:04.168Z,976.16
2022-09-19T07:42:03.163Z,976.07
2022-09-19T07:43:03.517Z,976.18
2022-09-19T07:44:03.594Z,976.07
2022-09-19T07:45:07.747Z,976.18
2022-09-19T07:46:03.874Z,976.20
2022-09-19T07:47:03.827Z,976.12
2022-09-19T07:48:02.937Z,976.14
2022-09-19T07:49:03.031Z,976.23
2022-09-19T07:50:03.105Z,976.31
2022-09-19T07:51:03.087Z,976.31
2022-09-19T07:52:03.186Z,976.17
2022-09-19T07:53:03.133Z,976.34
2022-09-19T07:54:03.143Z,976.19
2022-09-19T07:55:03.212Z,976.39
2022-09-19T07:56:03.224Z,976.33
2022-09-19T07:57:03.363Z,976.42
2022-09-19T07:58:03.263Z,976.28
2022-09-19T07:59:03.297Z,976.30
2022-09-19T08:00:03.281Z,976.44
2022-09-19T08:01:03.287Z,976.41
2022-09-19T08:02:03.372Z,976.44
2022-09-19T08:03:03.387Z,976.41
2022-09-19T08:04:03.551Z,976.46
2022-09-19T08:05:03.439Z,976.46
2022-09-19T08:06:03.297Z,976.49
2022-09-19T08:07:03.269Z,976.46
2022-09-19T08:08:03.397Z,976.57
2022-09-19T08:09:03.517Z,976.48
2022-09-19T08:10:03.427Z,976.54
2022-09-19T08:11:03.360Z,976.54
2022-09-19T08:12:03.380Z,976.62
2022-09-19T08:13:03.373Z,976.65
2022-09-19T08:14:03.221Z,976.68
2022-09-19T08:15:03.422Z,976.62
2022-09-19T08:16:04.064Z,976.68
2022-09-19T08:17:03.423Z,976.56
2022-09-19T08:18:03.420Z,976.59
2022-09-19T08:19:03.507Z,976.51
2022-09-19T08:20:03.478Z,976.65
2022-09-19T08:21:03.478Z,976.73
2022-09-19T08:22:03.506Z,976.56
2022-09-19T08:23:03.554Z,976.59
2022-09-19T08:24:03.630Z,976.56
2022-09-19T08:25:03.550Z,976.65
2022-09-19T08:26:03.462Z,976.70
2022-09-19T08:27:03.604Z,976.64
2022-09-19T08:28:03.683Z,976.67
2022-09-19T08:29:03.757Z,976.58
2022-09-19T08:30:03.815Z,976.67
2022-09-19T08:31:03.802Z,976.47
2022-09-19T08:32:03.916Z,976.64
2022-09-19T08:33:03.815Z,976.60
2022-09-19T08:34:03.775Z,976.57
2022-09-19T08:35:03.785Z,976.60
2022-09-19T08:36:03.912Z,976.66
2022-09-19T08:37:03.958Z,976.74
2022-09-19T08:38:03.876Z,976.71
2022-09-19T08:39:03.887Z,976.76
2022-09-19T08:40:03.887Z,976.78
2022-09-19T08:41:03.837Z,976.75
2022-09-19T08:42:02.971Z,976.78
2022-09-19T08:43:02.992Z,976.87
2022-09-19T08:44:03.107Z,976.87
2022-09-19T08:45:02.970Z,976.81
2022-09-19T08:46:03.352Z,976.92
2022-09-19T08:47:03.035Z,976.86
2022-09-19T08:48:03.093Z,976.83
2022-09-19T08:49:03.153Z,976.95
2022-09-19T08:50:03.103Z,976.86
2022-09-19T08:51:02.992Z,976.94
2022-09-19T08:52:03.135Z,976.94
2022-09-19T08:53:03.150Z,977.03
2022-09-19T08:54:03.177Z,977.03
2022-09-19T08:55:03.023Z,976.94
2022-09-19T08:56:03.052Z,977.14
2022-09-19T08:57:03.042Z,977.20
2022-09-19T08:58:03.071Z,977.19
2022-09-19T08:59:03.181Z,977.22
2022-09-19T09:00:03.242Z,977.16
2022-09-19T09:01:03.310Z,977.19
2022-09-19T09:02:24.664Z,977.22
2022-09-19T09:03:10.529Z,977.19
2022-09-19T09:04:03.702Z,977.25
2022-09-19T09:05:03.513Z,977.13
2022-09-19T09:06:03.496Z,977.13
2022-09-19T09:07:03.586Z,977.21
2022-09-19T09:08:03.552Z,977.18
2022-09-19T09:09:07.714Z,977.29
2022-09-19T09:10:03.666Z,977.26
2022-09-19T09:11:03.648Z,977.15
2022-09-19T09:12:03.639Z,977.29
2022-09-19T09:13:03.584Z,977.29
2022-09-19T09:14:03.762Z,977.32
2022-09-19T09:15:21.884Z,977.34
2022-09-19T09:16:03.141Z,977.34
2022-09-19T09:17:03.089Z,977.28
2022-09-19T09:18:03.004Z,977.40
2022-09-19T09:19:06.518Z,977.34
2022-09-19T09:20:03.329Z,977.31
2022-09-19T09:21:03.207Z,977.37
2022-09-19T09:22:03.161Z,977.42
2022-09-19T09:23:03.169Z,977.45
2022-09-19T09:24:34.346Z,977.54
2022-09-19T09:25:03.259Z,977.48
2022-09-19T09:26:03.259Z,977.48
2022-09-19T09:27:03.357Z,977.48
2022-09-19T09:28:03.454Z,977.51
2022-09-19T09:29:03.441Z,977.65
2022-09-19T09:30:03.468Z,977.45
2022-09-19T09:31:03.360Z,977.48
2022-09-19T09:32:03.459Z,977.54
2022-09-19T09:33:03.291Z,977.60
2022-09-19T09:34:03.344Z,977.65
2022-09-19T09:35:03.371Z,977.65
2022-09-19T09:36:03.381Z,977.57
2022-09-19T09:37:03.380Z,977.68
2022-09-19T09:38:03.424Z,977.68
2022-09-19T09:39:07.048Z,977.65
2022-09-19T09:40:03.586Z,977.65
2022-09-19T09:41:03.264Z,977.68
2022-09-19T09:42:03.466Z,977.60
2022-09-19T09:43:03.459Z,977.54
2022-09-19T09:44:03.409Z,977.71
2022-09-19T09:45:03.370Z,977.68
2022-09-19T09:46:03.639Z,977.68
2022-09-19T09:47:03.361Z,977.79
2022-09-19T09:48:03.414Z,977.79
2022-09-19T09:49:03.492Z,977.68
2022-09-19T09:50:03.564Z,977.77
2022-09-19T09:51:03.592Z,977.77
2022-09-19T09:52:03.645Z,977.79
2022-09-19T09:53:05.028Z,977.79
2022-09-19T09:54:03.343Z,977.76
2022-09-19T09:55:03.230Z,977.71
2022-09-19T09:56:03.179Z,977.71
2022-09-19T09:57:03.136Z,977.79
2022-09-19T09:58:03.362Z,977.85
2022-09-19T09:59:03.461Z,977.74
2022-09-19T10:00:03.230Z,977.80
2022-09-19T10:01:03.403Z,977.85
2022-09-19T10:02:03.315Z,977.83
2022-09-19T10:03:08.585Z,977.83
2022-09-19T10:04:03.213Z,977.80
2022-09-19T10:05:03.206Z,977.80
2022-09-19T10:06:03.181Z,977.86
2022-09-19T10:07:03.209Z,977.83
2022-09-19T10:08:03.234Z,977.83
2022-09-19T10:09:10.371Z,977.83
2022-09-19T10:10:03.308Z,977.74
2022-09-19T10:11:03.454Z,977.97
2022-09-19T10:12:54.499Z,977.97
2022-09-19T10:13:03.807Z,977.97
2022-09-19T10:14:03.814Z,977.91
2022-09-19T10:15:08.405Z,977.91
2022-09-19T10:16:04.061Z,977.85
2022-09-19T10:17:03.099Z,977.82
2022-09-19T10:18:03.039Z,977.82
2022-09-19T10:19:03.072Z,977.76
2022-09-19T10:20:03.147Z,977.87
2022-09-19T10:21:03.077Z,977.93
2022-09-19T10:22:03.162Z,977.87
2022-09-19T10:23:03.328Z,977.78
2022-09-19T10:24:03.328Z,977.92
2022-09-19T10:25:03.354Z,977.66
2022-09-19T10:26:03.316Z,977.72
2022-09-19T10:27:03.424Z,977.77
2022-09-19T10:28:03.456Z,977.86
2022-09-19T10:29:03.408Z,977.83
2022-09-19T10:30:03.394Z,977.86
2022-09-19T10:31:03.477Z,977.88
2022-09-19T10:32:03.589Z,978.00
2022-09-19T10:33:03.569Z,978.00
2022-09-19T10:34:03.715Z,978.02
2022-09-19T10:35:03.535Z,977.94
2022-09-19T10:36:03.666Z,978.09
2022-09-19T10:37:03.778Z,978.09
2022-09-19T10:38:03.834Z,978.09
2022-09-19T10:39:03.102Z,978.15
2022-09-19T10:40:03.143Z,978.09
2022-09-19T10:41:02.976Z,978.15
2022-09-19T10:42:02.935Z,978.06
2022-09-19T10:43:03.014Z,978.12
2022-09-19T10:44:02.883Z,978.06
2022-09-19T10:45:03.037Z,978.26
2022-09-19T10:46:03.304Z,978.00
2022-09-19T10:47:03.106Z,978.14
2022-09-19T10:48:03.210Z,977.92
2022-09-19T10:49:03.229Z,978.11
2022-09-19T10:50:03.182Z,977.88
2022-09-19T10:51:03.256Z,978.00
2022-09-19T10:52:03.162Z,977.94
2022-09-19T10:53:03.398Z,977.85
2022-09-19T10:54:03.452Z,977.87
2022-09-19T10:55:07.494Z,977.81
2022-09-19T10:56:03.480Z,977.90
2022-09-19T10:57:03.579Z,977.78
2022-09-19T10:58:03.710Z,977.72
2022-09-19T10:59:03.798Z,977.78
2022-09-19T11:00:03.144Z,977.89
2022-09-19T11:01:03.422Z,977.66
2022-09-19T11:02:03.293Z,977.80
2022-09-19T11:03:03.135Z,977.86
2022-09-19T11:04:02.913Z,977.92
2022-09-19T11:05:02.968Z,977.89
2022-09-19T11:06:02.984Z,977.71
2022-09-19T11:07:02.932Z,977.89
2022-09-19T11:08:02.971Z,977.86
2022-09-19T11:09:03.102Z,977.86
2022-09-19T11:10:03.183Z,977.88
2022-09-19T11:11:03.753Z,977.80
2022-09-19T11:12:03.661Z,977.86
2022-09-19T11:13:03.669Z,978.06
2022-09-19T11:14:03.670Z,978.00
2022-09-19T11:15:03.883Z,978.09
2022-09-19T11:16:03.256Z,977.98
2022-09-19T11:17:03.038Z,978.09
2022-09-19T11:18:03.105Z,978.18
2022-09-19T11:19:03.085Z,978.09
2022-09-19T11:20:03.065Z,978.06
2022-09-19T11:21:03.132Z,978.12
2022-09-19T11:22:04.111Z,978.06
2022-09-19T11:23:03.022Z,978.11
2022-09-19T11:24:03.229Z,978.09
2022-09-19T11:25:03.177Z,978.14
2022-09-19T11:26:03.245Z,978.05
2022-09-19T11:27:03.207Z,978.11
2022-09-19T11:28:03.178Z,978.10
2022-09-19T11:29:03.140Z,978.13
2022-09-19T11:30:03.314Z,978.07
2022-09-19T11:31:03.255Z,977.95
2022-09-19T11:32:57.775Z,978.12
2022-09-19T11:33:02.426Z,978.00
2022-09-19T11:34:53.373Z,978.11
2022-09-19T11:35:25.457Z,978.11
2022-09-19T11:36:03.713Z,978.13
2022-09-19T11:37:03.674Z,977.99
2022-09-19T11:38:03.545Z,977.96
2022-09-19T11:39:45.108Z,977.90
2022-09-19T11:40:03.355Z,977.96
2022-09-19T11:41:03.554Z,977.95
2022-09-19T11:42:03.269Z,978.07
2022-09-19T11:43:03.365Z,978.23
2022-09-19T11:44:03.320Z,978.06
2022-09-19T11:45:04.303Z,978.09
2022-09-19T11:46:03.697Z,978.01
2022-09-19T11:47:04.682Z,978.24
2022-09-19T11:48:03.571Z,978.12
2022-09-19T11:49:07.833Z,978.18
2022-09-19T11:50:03.746Z,978.24
2022-09-19T11:51:03.617Z,978.12
2022-09-19T11:52:03.763Z,978.23
2022-09-19T11:53:03.750Z,978.29
2022-09-19T11:54:03.096Z,978.17
2022-09-19T11:55:02.950Z,978.35
2022-09-19T11:56:03.012Z,978.23
2022-09-19T11:57:03.013Z,978.23
2022-09-19T11:58:03.131Z,978.20
2022-09-19T11:59:05.915Z,978.22
2022-09-19T12:00:03.183Z,978.19
2022-09-19T12:01:03.157Z,978.16
2022-09-19T12:02:03.396Z,978.10
2022-09-19T12:03:03.357Z,978.21
2022-09-19T12:04:07.523Z,978.13
2022-09-19T12:05:03.227Z,978.09
2022-09-19T12:06:03.177Z,978.06
2022-09-19T12:07:03.296Z,978.26
2022-09-19T12:08:03.331Z,978.20
2022-09-19T12:09:03.463Z,978.17
2022-09-19T12:10:03.416Z,978.06
2022-09-19T12:11:03.493Z,978.23
2022-09-19T12:12:03.486Z,978.26
2022-09-19T12:13:03.534Z,978.23
2022-09-19T12:14:03.562Z,978.18
2022-09-19T12:15:03.635Z,978.09
2022-09-19T12:16:03.611Z,978.12
2022-09-19T12:17:03.927Z,978.27
2022-09-19T12:18:04.544Z,978.09
2022-09-19T12:19:03.975Z,978.21
2022-09-19T12:20:03.882Z,978.06
2022-09-19T12:21:03.022Z,978.15
2022-09-19T12:22:03.028Z,978.09
2022-09-19T12:23:09.330Z,978.26
2022-09-19T12:24:03.196Z,978.17
2022-09-19T12:25:03.241Z,978.05
2022-09-19T12:26:03.428Z,978.10
2022-09-19T12:27:03.387Z,978.16
2022-09-19T12:28:03.587Z,978.13